createdAt,value
2022-12-11T00:00:43.038Z,96893.88
2022-12-11T00:02:44.398Z,96895.13
2022-12-11T00:04:45.760Z,96892.91
2022-12-11T00:06:50.369Z,96893.03
2022-12-11T00:08:51.952Z,96895.97
2022-12-11T00:10:53.280Z,96897.97
2022-12-11T00:12:54.564Z,96895.63
2022-12-11T00:14:55.848Z,96890.84
2022-12-11T00:16:57.219Z,96894.44
2022-12-11T00:18:58.556Z,96896.84
2022-12-11T00:20:59.888Z,96889.66
2022-12-11T00:23:01.183Z,96890.75
2022-12-11T00:25:02.489Z,96892.03
2022-12-11T00:27:03.780Z,96885.50
2022-12-11T00:29:05.071Z,96888.75
2022-12-11T00:31:06.412Z,96886.41
2022-12-11T00:33:07.841Z,96885.38
2022-12-11T00:35:09.520Z,96883.38
2022-12-11T00:37:11.052Z,96888.13
2022-12-11T00:39:12.360Z,96885.97
2022-12-11T00:41:13.725Z,96893.78
2022-12-11T00:43:15.156Z,96890.88
2022-12-11T00:45:18.010Z,96895.53
2022-12-11T00:47:19.332Z,96893.19
2022-12-11T00:49:20.616Z,96895.03
2022-12-11T00:51:22.192Z,96898.47
2022-12-11T00:53:23.595Z,96906.06
2022-12-11T00:55:25.499Z,96908.94
2022-12-11T00:57:26.826Z,96897.63
2022-12-11T00:59:28.152Z,96893.63
2022-12-11T01:01:29.483Z,96897.88
2022-12-11T01:03:30.794Z,96900.53
2022-12-11T01:05:32.123Z,96905.34
2022-12-11T01:07:33.408Z,96903.75
2022-12-11T01:09:53.313Z,96902.31
2022-12-11T01:11:54.617Z,96908.66
2022-12-11T01:13:55.907Z,96909.91
2022-12-11T01:15:57.220Z,96913.00
2022-12-11T01:17:58.601Z,96900.81
2022-12-11T01:19:59.893Z,96897.22
2022-12-11T01:22:01.230Z,96906.41
2022-12-11T01:24:02.556Z,96893.34
2022-12-11T01:26:03.848Z,96906.13
2022-12-11T01:28:05.332Z,96897.50
2022-12-11T01:30:07.484Z,96890.63
2022-12-11T01:32:08.788Z,96895.75
2022-12-11T01:34:10.223Z,96899.06
2022-12-11T01:36:11.552Z,96908.41
2022-12-11T01:38:12.835Z,96912.72
2022-12-11T01:40:14.144Z,96913.56
2022-12-11T01:42:15.446Z,96910.13
2022-12-11T01:44:16.737Z,96919.44
2022-12-11T01:46:18.093Z,96915.28
2022-12-11T01:48:19.456Z,96915.34
2022-12-11T01:50:20.744Z,96906.97
2022-12-11T01:52:22.100Z,96900.41
2022-12-11T01:54:23.396Z,96906.59
2022-12-11T01:56:24.720Z,96907.56
2022-12-11T01:58:26.007Z,96907.00
2022-12-11T02:00:27.296Z,96900.66
2022-12-11T02:02:28.621Z,96907.72
2022-12-11T02:04:29.952Z,96895.28
2022-12-11T02:06:31.232Z,96901.53
2022-12-11T02:08:32.551Z,96909.56
2022-12-11T02:10:33.960Z,96913.16
2022-12-11T02:12:35.252Z,96916.78
2022-12-11T02:14:36.592Z,96922.97
2022-12-11T02:16:37.926Z,96925.78
2022-12-11T02:18:39.248Z,96914.94
2022-12-11T02:20:40.537Z,96901.63
2022-12-11T02:22:41.821Z,96900.94
2022-12-11T02:24:43.160Z,96904.50
2022-12-11T02:26:44.476Z,96905.50
2022-12-11T02:28:45.788Z,96887.81
2022-12-11T02:30:47.091Z,96896.34
2022-12-11T02:32:48.418Z,96895.56
2022-12-11T02:34:49.708Z,96888.69
2022-12-11T02:36:51.033Z,96891.16
2022-12-11T02:38:52.319Z,96892.50
2022-12-11T02:40:53.612Z,96889.53
2022-12-11T02:42:54.894Z,96880.63
2022-12-11T02:44:57.175Z,96880.22
2022-12-11T02:46:58.489Z,96872.09
2022-12-11T02:48:59.787Z,96878.59
2022-12-11T02:51:01.083Z,96880.78
2022-12-11T02:53:02.372Z,96891.53
2022-12-11T02:55:03.688Z,96886.09
2022-12-11T02:57:05.039Z,96885.94
2022-12-11T02:59:06.333Z,96881.56
2022-12-11T03:01:07.872Z,96890.00
2022-12-11T03:03:09.461Z,96878.94
2022-12-11T03:05:10.966Z,96879.66
2022-12-11T03:07:12.520Z,96887.19
2022-12-11T03:09:13.849Z,96885.47
2022-12-11T03:11:15.142Z,96893.19
2022-12-11T03:13:16.432Z,96885.53
2022-12-11T03:15:17.729Z,96885.72
2022-12-11T03:17:19.016Z,96884.16
2022-12-11T03:19:20.316Z,96886.94
2022-12-11T03:21:21.600Z,96889.56
2022-12-11T03:23:22.895Z,96880.31
2022-12-11T03:25:24.181Z,96885.41
2022-12-11T03:27:25.472Z,96881.38
2022-12-11T03:29:26.766Z,96886.66
2022-12-11T03:31:28.052Z,96891.00
2022-12-11T03:33:29.377Z,96889.34
2022-12-11T03:35:30.659Z,96887.06
2022-12-11T03:37:31.983Z,96894.88
2022-12-11T03:39:33.284Z,96888.28
2022-12-11T03:41:34.619Z,96886.78
2022-12-11T03:43:35.909Z,96895.47
2022-12-11T03:45:37.236Z,96888.00
2022-12-11T03:47:38.528Z,96891.63
2022-12-11T03:49:39.861Z,96896.09
2022-12-11T03:51:42.282Z,96897.09
2022-12-11T03:53:44.056Z,96899.75
2022-12-11T03:55:45.412Z,96899.81
2022-12-11T03:57:46.701Z,96904.09
2022-12-11T03:59:47.989Z,96899.75
2022-12-11T04:01:49.346Z,96898.75
2022-12-11T04:03:50.725Z,96901.13
2022-12-11T04:05:52.088Z,96898.38
2022-12-11T04:07:53.439Z,96898.91
2022-12-11T04:09:54.745Z,96896.06
2022-12-11T04:11:56.040Z,96892.31
2022-12-11T04:14:16.073Z,96894.44
2022-12-11T04:16:17.417Z,96895.81
2022-12-11T04:18:37.575Z,96895.56
2022-12-11T04:20:57.414Z,96897.03
2022-12-11T04:23:17.193Z,96895.09
2022-12-11T04:25:18.520Z,96899.22
2022-12-11T04:27:39.773Z,96904.25
2022-12-11T04:29:41.056Z,96892.22
2022-12-11T04:31:42.440Z,96885.41
2022-12-11T04:33:43.765Z,96893.91
2022-12-11T04:35:45.226Z,96891.38
2022-12-11T04:37:46.602Z,96899.25
2022-12-11T04:39:47.938Z,96899.47
2022-12-11T04:41:49.234Z,96897.88
2022-12-11T04:43:50.568Z,96902.34
2022-12-11T04:45:51.859Z,96891.41
2022-12-11T04:47:53.151Z,96893.38
2022-12-11T04:49:54.440Z,96891.09
2022-12-11T04:51:55.732Z,96892.22
2022-12-11T04:53:57.130Z,96890.59
2022-12-11T04:55:58.508Z,96889.22
2022-12-11T04:57:59.906Z,96898.03
2022-12-11T05:00:01.990Z,96894.06
2022-12-11T05:02:03.346Z,96895.06
2022-12-11T05:04:04.746Z,96896.97
2022-12-11T05:06:06.032Z,96892.84
2022-12-11T05:08:08.256Z,96900.72
2022-12-11T05:10:09.592Z,96896.66
2022-12-11T05:12:10.916Z,96890.81
2022-12-11T05:14:12.208Z,96887.41
2022-12-11T05:16:13.640Z,96881.34
2022-12-11T05:18:15.008Z,96888.13
2022-12-11T05:20:16.764Z,96884.56
2022-12-11T05:22:18.089Z,96874.13
2022-12-11T05:24:19.381Z,96868.47
2022-12-11T05:26:21.301Z,96877.38
2022-12-11T05:28:22.653Z,96867.63
2022-12-11T05:30:24.020Z,96863.13
2022-12-11T05:32:25.345Z,96869.56
2022-12-11T05:34:26.633Z,96872.69
2022-12-11T05:36:28.120Z,96868.16
2022-12-11T05:38:29.478Z,96862.84
2022-12-11T05:40:30.796Z,96852.44
2022-12-11T05:42:32.125Z,96859.13
2022-12-11T05:44:33.836Z,96855.44
2022-12-11T05:46:35.703Z,96855.44
2022-12-11T05:48:37.116Z,96853.75
2022-12-11T05:50:38.403Z,96858.00
2022-12-11T05:52:39.696Z,96854.81
2022-12-11T05:54:41.021Z,96858.25
2022-12-11T05:56:42.319Z,96860.28
2022-12-11T05:58:43.645Z,96858.75
2022-12-11T06:00:44.933Z,96857.34
2022-12-11T06:02:46.419Z,96855.75
2022-12-11T06:04:47.740Z,96861.06
2022-12-11T06:06:49.033Z,96850.84
2022-12-11T06:08:50.358Z,96854.41
2022-12-11T06:10:51.695Z,96853.72
2022-12-11T06:12:53.081Z,96850.72
2022-12-11T06:14:54.445Z,96859.50
2022-12-11T06:16:55.740Z,96859.66
2022-12-11T06:18:58.367Z,96862.41
2022-12-11T06:20:59.990Z,96859.94
2022-12-11T06:23:01.575Z,96863.56
2022-12-11T06:25:02.867Z,96869.72
2022-12-11T06:27:04.165Z,96867.34
2022-12-11T06:29:09.170Z,96868.38
2022-12-11T06:31:14.108Z,96873.59
2022-12-11T06:33:17.273Z,96875.38
2022-12-11T06:35:18.640Z,96875.41
2022-12-11T06:37:19.929Z,96884.75
2022-12-11T06:39:21.229Z,96882.50
2022-12-11T06:41:22.547Z,96886.22
2022-12-11T06:43:24.256Z,96881.56
2022-12-11T06:45:25.597Z,96887.09
2022-12-11T06:47:27.287Z,96882.59
2022-12-11T06:49:28.598Z,96877.16
2022-12-11T06:51:29.884Z,96880.34
2022-12-11T06:53:31.256Z,96878.38
2022-12-11T06:55:32.656Z,96883.41
2022-12-11T06:57:34.492Z,96885.00
2022-12-11T06:59:35.782Z,96887.53
2022-12-11T07:01:37.079Z,96881.63
2022-12-11T07:03:38.441Z,96890.25
2022-12-11T07:05:39.804Z,96891.16
2022-12-11T07:07:41.129Z,96889.59
2022-12-11T07:09:42.456Z,96899.25
2022-12-11T07:11:43.761Z,96891.84
2022-12-11T07:13:45.123Z,96902.50
2022-12-11T07:15:46.409Z,96896.88
2022-12-11T07:17:47.758Z,96906.44
2022-12-11T07:19:49.088Z,96908.25
2022-12-11T07:21:50.390Z,96907.47
2022-12-11T07:23:51.711Z,96907.59
2022-12-11T07:25:53.813Z,96907.81
2022-12-11T07:27:55.168Z,96913.81
2022-12-11T07:29:56.523Z,96906.22
2022-12-11T07:32:00.558Z,96907.06
2022-12-11T07:34:02.323Z,96908.72
2022-12-11T07:36:03.617Z,96903.59
2022-12-11T07:38:04.948Z,96909.44
2022-12-11T07:40:06.293Z,96911.78
2022-12-11T07:42:07.572Z,96911.69
2022-12-11T07:44:08.873Z,96909.91
2022-12-11T07:46:10.229Z,96911.44
2022-12-11T07:48:15.561Z,96907.91
2022-12-11T07:50:17.113Z,96902.50
2022-12-11T07:52:18.488Z,96907.22
2022-12-11T07:54:21.047Z,96903.47
2022-12-11T07:56:22.357Z,96898.88
2022-12-11T07:58:23.722Z,96905.13
2022-12-11T08:00:25.048Z,96905.44
2022-12-11T08:02:26.476Z,96905.31
2022-12-11T08:04:27.815Z,96912.16
2022-12-11T08:06:29.209Z,96912.91
2022-12-11T08:08:30.501Z,96913.94
2022-12-11T08:10:31.793Z,96910.69
2022-12-11T08:12:33.124Z,96898.28
2022-12-11T08:14:34.412Z,96899.75
2022-12-11T08:16:36.461Z,96893.69
2022-12-11T08:18:37.965Z,96902.00
2022-12-11T08:20:39.287Z,96897.88
2022-12-11T08:22:43.639Z,96896.88
2022-12-11T08:24:44.970Z,96895.84
2022-12-11T08:26:46.258Z,96899.75
2022-12-11T08:28:47.547Z,96904.31
2022-12-11T08:30:48.869Z,96896.13
2022-12-11T08:32:50.245Z,96898.13
2022-12-11T08:34:51.732Z,96891.53
2022-12-11T08:36:53.072Z,96888.34
2022-12-11T08:38:54.400Z,96889.44
2022-12-11T08:40:55.692Z,96887.91
2022-12-11T08:42:56.989Z,96880.41
2022-12-11T08:44:58.289Z,96881.34
2022-12-11T08:46:59.589Z,96879.75
2022-12-11T08:49:00.951Z,96881.47
2022-12-11T08:51:02.301Z,96885.56
2022-12-11T08:53:03.596Z,96891.25
2022-12-11T08:55:04.899Z,96891.78
2022-12-11T08:57:06.204Z,96891.53
2022-12-11T08:59:11.484Z,96887.09
2022-12-11T09:01:12.824Z,96891.09
2022-12-11T09:03:14.328Z,96890.78
2022-12-11T09:05:15.665Z,96884.63
2022-12-11T09:07:19.638Z,96889.41
2022-12-11T09:09:20.956Z,96887.53
2022-12-11T09:11:22.417Z,96884.63
2022-12-11T09:13:23.709Z,96885.69
2022-12-11T09:15:30.832Z,96886.53
2022-12-11T09:17:32.184Z,96873.69
2022-12-11T09:19:33.505Z,96885.38
2022-12-11T09:21:37.825Z,96887.06
2022-12-11T09:23:39.136Z,96881.13
2022-12-11T09:25:40.441Z,96892.94
2022-12-11T09:27:41.775Z,96887.75
2022-12-11T09:29:43.100Z,96887.75
2022-12-11T09:31:44.428Z,96883.44
2022-12-11T09:33:45.755Z,96886.03
2022-12-11T09:35:47.093Z,96891.13
2022-12-11T09:37:49.417Z,96889.34
2022-12-11T09:39:50.707Z,96891.97
2022-12-11T09:41:52.021Z,96886.03
2022-12-11T09:43:53.388Z,96888.56
2022-12-11T09:45:56.270Z,96885.25
2022-12-11T09:47:57.654Z,96884.44
2022-12-11T09:49:58.947Z,96883.59
2022-12-11T09:52:00.272Z,96879.44
2022-12-11T09:54:01.566Z,96876.19
2022-12-11T09:56:02.871Z,96882.38
2022-12-11T09:58:05.226Z,96880.03
2022-12-11T10:00:09.507Z,96878.44
2022-12-11T10:02:10.941Z,96878.75
2022-12-11T10:04:12.225Z,96878.06
2022-12-11T10:06:13.659Z,96874.94
2022-12-11T10:08:14.969Z,96881.88
2022-12-11T10:10:16.335Z,96878.69
2022-12-11T10:12:20.580Z,96880.47
2022-12-11T10:14:21.874Z,96872.19
2022-12-11T10:16:23.203Z,96868.81
2022-12-11T10:18:25.088Z,96863.91
2022-12-11T10:20:31.209Z,96858.81
2022-12-11T10:22:32.507Z,96864.81
2022-12-11T10:25:09.545Z,96863.03
2022-12-11T10:26:57.868Z,96866.28
2022-12-11T10:28:59.166Z,96865.22
2022-12-11T10:31:00.552Z,96859.88
2022-12-11T10:33:01.870Z,96845.06
2022-12-11T10:35:03.184Z,96852.16
2022-12-11T10:37:04.472Z,96847.31
2022-12-11T10:39:05.765Z,96842.72
2022-12-11T10:41:07.088Z,96842.91
2022-12-11T10:43:08.389Z,96841.41
2022-12-11T10:45:10.099Z,96833.72
2022-12-11T10:47:11.780Z,96828.66
2022-12-11T10:49:13.104Z,96824.44
2022-12-11T10:51:14.384Z,96815.91
2022-12-11T10:53:15.669Z,96812.50
2022-12-11T10:55:16.956Z,96810.75
2022-12-11T10:57:18.240Z,96803.59
2022-12-11T10:59:23.947Z,96802.47
2022-12-11T11:01:25.535Z,96804.00
2022-12-11T11:03:26.862Z,96797.84
2022-12-11T11:05:28.220Z,96799.59
2022-12-11T11:07:29.508Z,96800.41
2022-12-11T11:09:30.829Z,96801.22
2022-12-11T11:11:34.034Z,96802.84
2022-12-11T11:13:35.958Z,96803.56
2022-12-11T11:15:37.342Z,96807.66
2022-12-11T11:17:44.655Z,96805.00
2022-12-11T11:19:55.185Z,96805.75
2022-12-11T11:21:56.492Z,96803.97
2022-12-11T11:24:00.611Z,96802.25
2022-12-11T11:26:03.104Z,96795.38
2022-12-11T11:28:04.436Z,96798.72
2022-12-11T11:30:05.718Z,96794.41
2022-12-11T11:32:07.045Z,96799.41
2022-12-11T11:34:10.446Z,96806.09
2022-12-11T11:36:11.736Z,96807.72
2022-12-11T11:38:13.028Z,96807.72
2022-12-11T11:40:14.694Z,96799.19
2022-12-11T11:42:16.128Z,96803.41
2022-12-11T11:44:17.554Z,96808.44
2022-12-11T11:46:18.959Z,96799.91
2022-12-11T11:48:20.264Z,96798.19
2022-12-11T11:50:21.591Z,96794.81
2022-12-11T11:52:25.276Z,96793.97
2022-12-11T11:54:26.579Z,96790.59
2022-12-11T11:56:30.832Z,96789.75
2022-12-11T11:58:32.124Z,96799.13
2022-12-11T12:00:34.183Z,96792.38
2022-12-11T12:02:35.649Z,96796.66
2022-12-11T12:04:37.140Z,96788.16
2022-12-11T12:06:38.480Z,96789.06
2022-12-11T12:08:39.806Z,96783.13
2022-12-11T12:10:41.088Z,96787.41
2022-12-11T12:12:45.284Z,96786.53
2022-12-11T12:14:53.735Z,96778.91
2022-12-11T12:16:55.176Z,96782.28
2022-12-11T12:18:56.465Z,96777.09
2022-12-11T12:20:57.793Z,96778.88
2022-12-11T12:22:59.596Z,96778.88
2022-12-11T12:25:00.885Z,96776.38
2022-12-11T12:27:02.220Z,96784.84
2022-12-11T12:29:03.544Z,96781.53
2022-12-11T12:31:04.917Z,96780.69
2022-12-11T12:33:06.259Z,96784.09
2022-12-11T12:35:07.633Z,96789.44
2022-12-11T12:37:09.058Z,96781.28
2022-12-11T12:39:10.351Z,96777.13
2022-12-11T12:41:14.210Z,96793.66
2022-12-11T12:43:15.565Z,96779.88
2022-12-11T12:45:16.861Z,96783.06
2022-12-11T12:47:18.190Z,96778.00
2022-12-11T12:49:19.521Z,96777.13
2022-12-11T12:51:20.847Z,96777.59
2022-12-11T12:53:22.132Z,96778.16
2022-12-11T12:55:23.464Z,96771.25
2022-12-11T12:57:24.780Z,96766.22
2022-12-11T12:59:26.129Z,96764.97
2022-12-11T13:01:27.514Z,96764.56
2022-12-11T13:03:30.314Z,96760.50
2022-12-11T13:05:31.599Z,96759.31
2022-12-11T13:07:32.933Z,96751.50
2022-12-11T13:09:34.229Z,96749.06
2022-12-11T13:11:35.603Z,96755.72
2022-12-11T13:13:36.952Z,96747.91
2022-12-11T13:15:40.535Z,96752.22
2022-12-11T13:17:42.644Z,96752.72
2022-12-11T13:19:43.936Z,96748.47
2022-12-11T13:21:48.240Z,96747.81
2022-12-11T13:23:49.529Z,96750.09
2022-12-11T13:25:50.932Z,96750.53
2022-12-11T13:27:52.333Z,96753.81
2022-12-11T13:29:53.656Z,96744.34
2022-12-11T13:31:55.002Z,96735.97
2022-12-11T13:33:56.363Z,96731.78
2022-12-11T13:35:57.698Z,96740.31
2022-12-11T13:37:58.984Z,96737.78
2022-12-11T13:40:00.289Z,96732.66
2022-12-11T13:42:01.589Z,96737.00
2022-12-11T13:44:03.033Z,96740.44
2022-12-11T13:46:04.466Z,96744.72
2022-12-11T13:48:06.040Z,96748.19
2022-12-11T13:50:07.388Z,96743.84
2022-12-11T13:52:08.725Z,96754.03
2022-12-11T13:54:15.137Z,96752.38
2022-12-11T13:56:17.932Z,96759.22
2022-12-11T13:58:19.266Z,96758.31
2022-12-11T14:00:20.740Z,96759.97
2022-12-11T14:02:22.112Z,96758.25
2022-12-11T14:04:23.588Z,96762.47
2022-12-11T14:06:24.923Z,96767.56
2022-12-11T14:08:29.826Z,96762.53
2022-12-11T14:10:31.219Z,96760.75
2022-12-11T14:12:32.824Z,96773.44
2022-12-11T14:14:34.165Z,96758.19
2022-12-11T14:16:35.511Z,96766.59
2022-12-11T14:18:36.821Z,96765.78
2022-12-11T14:20:38.104Z,96767.44
2022-12-11T14:22:39.397Z,96767.44
2022-12-11T14:24:40.725Z,96776.88
2022-12-11T14:26:42.049Z,96778.59
2022-12-11T14:28:43.331Z,96775.28
2022-12-11T14:30:47.556Z,96772.78
2022-12-11T14:32:48.853Z,96779.56
2022-12-11T14:34:50.304Z,96779.38
2022-12-11T14:36:51.628Z,96782.00
2022-12-11T14:38:53.133Z,96775.22
2022-12-11T14:40:55.103Z,96778.72
2022-12-11T14:43:00.115Z,96775.34
2022-12-11T14:45:01.854Z,96768.72
2022-12-11T14:47:03.161Z,96776.28
2022-12-11T14:49:04.492Z,96775.53
2022-12-11T14:51:05.775Z,96773.06
2022-12-11T14:53:07.089Z,96773.94
2022-12-11T14:55:08.776Z,96775.53
2022-12-11T14:57:10.221Z,96770.50
2022-12-11T14:59:11.510Z,96777.34
2022-12-11T15:01:12.792Z,96770.75
2022-12-11T15:03:14.158Z,96771.81
2022-12-11T15:05:15.954Z,96772.97
2022-12-11T15:07:17.244Z,96771.44
2022-12-11T15:09:18.548Z,96773.25
2022-12-11T15:11:19.873Z,96768.22
2022-12-11T15:13:21.760Z,96769.19
2022-12-11T15:15:23.096Z,96770.97
2022-12-11T15:17:27.460Z,96778.09
2022-12-11T15:19:28.807Z,96774.81
2022-12-11T15:21:30.100Z,96777.78
2022-12-11T15:23:31.432Z,96781.63
2022-12-11T15:25:32.715Z,96786.16
2022-12-11T15:27:35.600Z,96780.44
2022-12-11T15:29:36.979Z,96777.09
2022-12-11T15:31:38.272Z,96788.19
2022-12-11T15:33:39.588Z,96784.50
2022-12-11T15:35:40.884Z,96781.25
2022-12-11T15:37:44.832Z,96784.50
2022-12-11T15:39:46.138Z,96781.31
2022-12-11T15:41:47.428Z,96790.47
2022-12-11T15:43:51.734Z,96775.78
2022-12-11T15:45:55.315Z,96777.38
2022-12-11T15:47:57.303Z,96787.97
2022-12-11T15:50:01.313Z,96781.28
2022-12-11T15:52:02.663Z,96780.47
2022-12-11T15:54:03.948Z,96782.88
2022-12-11T15:56:05.252Z,96783.88
2022-12-11T15:58:06.569Z,96791.50
2022-12-11T16:00:07.852Z,96782.16
2022-12-11T16:02:09.196Z,96794.81
2022-12-11T16:04:10.945Z,96789.94
2022-12-11T16:06:12.279Z,96794.31
2022-12-11T16:08:15.099Z,96784.22
2022-12-11T16:10:16.856Z,96780.97
2022-12-11T16:12:18.352Z,96789.53
2022-12-11T16:14:19.681Z,96784.78
2022-12-11T16:16:21.040Z,96787.28
2022-12-11T16:18:22.383Z,96786.53
2022-12-11T16:20:26.588Z,96784.91
2022-12-11T16:22:27.895Z,96789.53
2022-12-11T16:24:29.219Z,96655.19
2022-12-11T16:26:30.515Z,96790.41
2022-12-11T16:28:31.801Z,96794.50
2022-12-11T16:30:33.139Z,96795.88
2022-12-11T16:32:34.423Z,96796.56
2022-12-11T16:34:35.772Z,96805.63
2022-12-11T16:36:37.072Z,96797.06
2022-12-11T16:38:38.353Z,96794.41
2022-12-11T16:40:40.552Z,96783.66
2022-12-11T16:42:41.841Z,96791.78
2022-12-11T16:44:44.300Z,96786.38
2022-12-11T16:46:45.905Z,96786.44
2022-12-11T16:48:47.228Z,96785.75
2022-12-11T16:50:48.616Z,96785.00
2022-12-11T16:52:53.179Z,96783.34
2022-12-11T16:54:54.658Z,96786.00
2022-12-11T16:56:55.953Z,96779.69
2022-12-11T16:58:57.284Z,96782.84
2022-12-11T17:01:02.047Z,96785.25
2022-12-11T17:03:03.571Z,96782.22
2022-12-11T17:05:04.928Z,96785.41
2022-12-11T17:07:06.212Z,96784.44
2022-12-11T17:09:07.506Z,96785.28
2022-12-11T17:11:09.059Z,96775.94
2022-12-11T17:13:10.440Z,96781.78
2022-12-11T17:15:12.122Z,96776.06
2022-12-11T17:17:13.664Z,96776.19
2022-12-11T17:19:15.094Z,96784.16
2022-12-11T17:21:19.501Z,96777.22
2022-12-11T17:23:20.791Z,96784.25
2022-12-11T17:25:22.310Z,96787.56
2022-12-11T17:27:23.617Z,96781.72
2022-12-11T17:29:24.959Z,96782.22
2022-12-11T17:31:26.322Z,96782.78
2022-12-11T17:33:27.624Z,96777.97
2022-12-11T17:35:28.916Z,96773.38
2022-12-11T17:37:30.595Z,96654.38
2022-12-11T17:39:31.926Z,96767.84
2022-12-11T17:41:33.228Z,96773.66
2022-12-11T17:43:34.563Z,96769.56
2022-12-11T17:45:35.848Z,96770.63
2022-12-11T17:47:37.144Z,96775.66
2022-12-11T17:49:38.469Z,96772.75
2022-12-11T17:51:39.770Z,96777.22
2022-12-11T17:53:41.096Z,96779.84
2022-12-11T17:55:42.839Z,96775.19
2022-12-11T17:57:44.218Z,96772.59
2022-12-11T17:59:45.504Z,96786.03
2022-12-11T18:01:46.867Z,96783.28
2022-12-11T18:03:48.286Z,96781.38
2022-12-11T18:05:49.612Z,96777.59
2022-12-11T18:07:55.975Z,96779.16
2022-12-11T18:09:59.107Z,96634.25
2022-12-11T18:12:00.433Z,96779.56
2022-12-11T18:14:01.758Z,96773.16
2022-12-11T18:16:03.181Z,96776.34
2022-12-11T18:18:04.584Z,96773.75
2022-12-11T18:20:05.880Z,96776.97
2022-12-11T18:22:07.172Z,96780.44
2022-12-11T18:24:08.906Z,96772.44
2022-12-11T18:26:11.187Z,96767.19
2022-12-11T18:28:12.473Z,96773.38
2022-12-11T18:30:14.258Z,96775.63
2022-12-11T18:32:15.609Z,96771.28
2022-12-11T18:34:16.903Z,96772.56
2022-12-11T18:36:18.189Z,96768.38
2022-12-11T18:38:19.496Z,96773.97
2022-12-11T18:40:20.829Z,96777.69
2022-12-11T18:42:32.791Z,96772.06
2022-12-11T18:44:34.844Z,96772.47
2022-12-11T18:46:36.174Z,96765.38
2022-12-11T18:48:37.637Z,96771.25
2022-12-11T18:50:38.925Z,96769.31
2022-12-11T18:52:40.262Z,96776.38
2022-12-11T18:54:41.539Z,96776.31
2022-12-11T18:56:42.831Z,96774.31
2022-12-11T18:58:44.206Z,96781.38
2022-12-11T19:00:45.751Z,96778.06
2022-12-11T19:02:47.349Z,96779.03
2022-12-11T19:04:48.663Z,96775.06
2022-12-11T19:06:49.955Z,96765.16
2022-12-11T19:08:51.304Z,96769.41
2022-12-11T19:10:52.591Z,96768.91
2022-12-11T19:12:54.016Z,96771.78
2022-12-11T19:14:55.495Z,96763.56
2022-12-11T19:16:56.930Z,96773.84
2022-12-11T19:19:01.319Z,96777.06
2022-12-11T19:21:08.797Z,96779.13
2022-12-11T19:23:10.574Z,96778.56
2022-12-11T19:25:12.096Z,96784.28
2022-12-11T19:27:14.081Z,96777.88
2022-12-11T19:29:18.879Z,96778.38
2022-12-11T19:31:20.297Z,96780.03
2022-12-11T19:33:21.882Z,96775.19
2022-12-11T19:35:23.175Z,96783.63
2022-12-11T19:37:24.464Z,96780.84
2022-12-11T19:39:25.812Z,96780.56
2022-12-11T19:41:27.109Z,96778.69
2022-12-11T19:43:28.492Z,96773.69
2022-12-11T19:45:29.781Z,96771.13
2022-12-11T19:47:31.068Z,96770.16
2022-12-11T19:49:38.422Z,96769.81
2022-12-11T19:51:40.078Z,96775.19
2022-12-11T19:53:41.356Z,96776.63
2022-12-11T19:55:42.756Z,96776.88
2022-12-11T19:57:44.288Z,96773.72
2022-12-11T19:59:45.617Z,96775.72
2022-12-11T20:01:48.202Z,96773.19
2022-12-11T20:03:52.628Z,96774.66
2022-12-11T20:05:54.017Z,96775.66
2022-12-11T20:07:55.402Z,96769.78
2022-12-11T20:09:56.758Z,96769.09
2022-12-11T20:11:58.044Z,96771.16
2022-12-11T20:14:05.620Z,96765.31
2022-12-11T20:16:07.325Z,96761.16
2022-12-11T20:18:09.493Z,96764.69
2022-12-11T20:20:13.019Z,96755.06
2022-12-11T20:22:14.313Z,96754.72
2022-12-11T20:24:15.595Z,96749.97
2022-12-11T20:26:17.084Z,96751.13
2022-12-11T20:28:18.371Z,96742.88
2022-12-11T20:30:19.666Z,96752.44
2022-12-11T20:32:20.972Z,96748.44
2022-12-11T20:34:22.308Z,96748.28
2022-12-11T20:36:23.608Z,96749.53
2022-12-11T20:38:27.726Z,96748.72
2022-12-11T20:40:32.637Z,96748.59
2022-12-11T20:42:33.928Z,96743.81
2022-12-11T20:44:35.221Z,96751.66
2022-12-11T20:46:40.005Z,96752.00
2022-12-11T20:48:41.318Z,96753.13
2022-12-11T20:50:42.601Z,96741.22
2022-12-11T20:52:43.888Z,96744.59
2022-12-11T20:54:45.176Z,96749.19
2022-12-11T20:56:46.482Z,96753.31
2022-12-11T20:58:47.821Z,96748.84
2022-12-11T21:00:49.160Z,96752.09
2022-12-11T21:02:50.528Z,96755.22
2022-12-11T21:04:54.860Z,96749.63
2022-12-11T21:06:56.256Z,96751.75
2022-12-11T21:09:00.127Z,96750.91
2022-12-11T21:11:01.425Z,96749.59
2022-12-11T21:13:02.713Z,96741.31
2022-12-11T21:15:04.009Z,96746.72
2022-12-11T21:17:05.399Z,96741.63
2022-12-11T21:19:06.812Z,96740.03
2022-12-11T21:21:08.145Z,96751.84
2022-12-11T21:23:09.444Z,96748.28
2022-12-11T21:25:11.032Z,96752.19
2022-12-11T21:27:12.591Z,96737.69
2022-12-11T21:29:13.873Z,96740.13
2022-12-11T21:31:15.200Z,96740.13
2022-12-11T21:33:16.588Z,96734.38
2022-12-11T21:35:17.890Z,96738.00
2022-12-11T21:37:19.184Z,96744.19
2022-12-11T21:39:20.469Z,96743.63
2022-12-11T21:41:21.794Z,96745.59
2022-12-11T21:43:23.185Z,96751.84
2022-12-11T21:45:59.970Z,96742.66
2022-12-11T21:47:46.085Z,96743.56
2022-12-11T21:49:47.365Z,96734.88
2022-12-11T21:51:48.716Z,96740.50
2022-12-11T21:53:50.000Z,96750.34
2022-12-11T21:55:51.347Z,96740.53
2022-12-11T21:57:52.669Z,96740.69
2022-12-11T21:59:53.961Z,96740.03
2022-12-11T22:01:55.265Z,96741.03
2022-12-11T22:03:56.621Z,96736.19
2022-12-11T22:05:57.957Z,96738.53
2022-12-11T22:07:59.289Z,96727.31
2022-12-11T22:10:00.595Z,96735.69
2022-12-11T22:12:01.893Z,96744.75
2022-12-11T22:14:03.300Z,96734.41
2022-12-11T22:16:04.625Z,96740.31
2022-12-11T22:18:05.954Z,96740.09
2022-12-11T22:20:07.273Z,96736.69
2022-12-11T22:22:08.570Z,96742.91
2022-12-11T22:24:09.964Z,96737.19
2022-12-11T22:26:11.289Z,96735.59
2022-12-11T22:28:12.699Z,96740.50
2022-12-11T22:30:13.981Z,96735.81
2022-12-11T22:32:15.279Z,96731.00
2022-12-11T22:34:16.600Z,96735.59
2022-12-11T22:36:19.014Z,96730.69
2022-12-11T22:38:21.592Z,96727.69
2022-12-11T22:40:23.044Z,96723.75
2022-12-11T22:42:24.332Z,96722.28
2022-12-11T22:44:25.787Z,96734.50
2022-12-11T22:46:27.099Z,96731.47
2022-12-11T22:48:28.418Z,96739.50
2022-12-11T22:50:29.708Z,96735.41
2022-12-11T22:52:31.115Z,96740.88
2022-12-11T22:54:32.401Z,96740.44
2022-12-11T22:56:33.711Z,96732.28
2022-12-11T22:58:34.995Z,96725.81
2022-12-11T23:00:36.324Z,96726.94
2022-12-11T23:02:37.727Z,96731.47
2022-12-11T23:04:39.212Z,96731.50
2022-12-11T23:06:40.542Z,96733.06
2022-12-11T23:08:41.912Z,96733.81
2022-12-11T23:10:43.320Z,96730.22
2022-12-11T23:12:44.644Z,96727.41
2022-12-11T23:14:45.925Z,96733.78
2022-12-11T23:16:47.300Z,96725.47
2022-12-11T23:18:48.606Z,96736.69
2022-12-11T23:20:49.941Z,96732.72
2022-12-11T23:22:51.293Z,96736.56
2022-12-11T23:24:52.576Z,96732.88
2022-12-11T23:26:53.880Z,96733.41
2022-12-11T23:28:55.204Z,96740.91
2022-12-11T23:30:56.587Z,96732.19
2022-12-11T23:32:57.937Z,96732.81
2022-12-11T23:34:59.236Z,96734.41
2022-12-11T23:37:00.652Z,96735.31
2022-12-11T23:39:02.112Z,96737.09
2022-12-11T23:41:03.405Z,96739.59
2022-12-11T23:43:04.728Z,96736.41
2022-12-11T23:45:06.019Z,96742.19
2022-12-11T23:47:07.349Z,96736.28
2022-12-11T23:49:08.640Z,96735.72
2022-12-11T23:51:09.976Z,96739.44